Home > Products > Valid Products > MTR

000
SAUS44 KMEG 190354
MTRTUP
METAR KTUP 190353Z 06005KT 10SM OVC031 07/03 A3022 RMK AO2 SLP232
T00720033





000
SAUS44 KMEG 190354
MTRTUP
METAR KTUP 190353Z 06005KT 10SM OVC031 07/03 A3022 RMK AO2 SLP232
T00720033





000
SAUS44 KMEG 190254
MTRTUP
METAR KTUP 190253Z 04006KT 10SM OVC032 07/03 A3021 RMK AO2 SLP231
T00720033 51008





000
SAUS44 KMEG 190154
MTRTUP
METAR KTUP 190153Z 06004KT 10SM OVC032 08/03 A3021 RMK AO2 SLP229
T00780028





000
SAUS44 KMEG 190154
MTRTUP
METAR KTUP 190153Z 06004KT 10SM OVC032 08/03 A3021 RMK AO2 SLP229
T00780028





000
SAUS44 KMEG 190054
MTRTUP
METAR KTUP 190053Z 05003KT 10SM OVC033 08/02 A3021 RMK AO2 SLP229
T00780022





000
SAUS44 KMEG 182354
MTRTUP
METAR KTUP 182353Z 05004KT 10SM OVC032 08/02 A3019 RMK AO2 SLP223
T00780022 10089 20067 53006





000
SAUS44 KMEG 182254
MTRTUP
METAR KTUP 182253Z 00000KT 10SM OVC032 08/02 A3018 RMK AO2 SLP219
T00830022





000
SAUS44 KMEG 182154
MTRTUP
METAR KTUP 182153Z 04003KT 10SM OVC034 08/02 A3018 RMK AO2 SLP219
T00830017





000
SAUS44 KMEG 182054
MTRTUP
METAR KTUP 182053Z AUTO 07003KT 10SM BKN033 OVC046 08/01 A3017 RMK
AO2 SLP216 T00830011 56017





000
SAUS44 KMEG 181954
MTRTUP
METAR KTUP 181953Z 00000KT 10SM OVC035 08/02 A3017 RMK AO2 SLP217
T00830017





000
SAUS44 KMEG 181854
MTRTUP
METAR KTUP 181853Z 06003KT 10SM BKN038 OVC046 08/02 A3019 RMK AO2
SLP223 T00780022





000
SAUS44 KMEG 181754
MTRTUP
METAR KTUP 181753Z 00000KT 10SM OVC041 07/02 A3022 RMK AO2 SLP234
60002 T00670017 10067 20044 58008





000
SAUS44 KMEG 181654
MTRTUP
METAR KTUP 181653Z 00000KT 10SM OVC039 06/02 A3025 RMK AO2 SLP244
T00610022





000
SAUS44 KMEG 181554
MTRTUP
METAR KTUP 181553Z 07004KT 10SM BKN038 OVC065 06/02 A3024 RMK AO2
SLP241 T00560022





000
SAUS44 KMEG 181454
MTRTUP
METAR KTUP 181453Z 05005KT 10SM FEW044 SCT060 OVC080 05/02 A3025 RMK
AO2 RAB01E10 SLP243 P0000 60002 T00500022 53011





000
SAUS44 KMEG 181354
MTRTUP
METAR KTUP 181353Z 00000KT 10SM OVC043 05/02 A3022 RMK AO2 SLP235
T00500022





000
SAUS44 KMEG 181354
MTRTUP
METAR KTUP 181353Z 00000KT 10SM OVC043 05/02 A3022 RMK AO2 SLP235
T00500022





000
SAUS44 KMEG 181254
MTRTUP
METAR KTUP 181253Z 12004KT 10SM BKN055 OVC080 04/02 A3021 RMK AO2
RAB1155E53 SLP230 P0002 T00440017





000
SAUS44 KMEG 181254
MTRTUP
METAR KTUP 181253Z 12004KT 10SM BKN055 OVC080 04/02 A3021 RMK AO2
RAB1155E53 SLP230 P0002 T00440017





000
SAUS44 KMEG 181154
MTRTUP
METAR KTUP 181153Z 09003KT 10SM OVC070 05/01 A3021 RMK AO2 RAB07E22
SLP231 P0000 60000 T00500011 10050 20044 58014





000
SAUS44 KMEG 181054
MTRTUP
METAR KTUP 181053Z AUTO 09005KT 10SM BKN075 OVC090 05/01 A3022 RMK
AO2 SLP234 T00500006





000
SAUS44 KMEG 181054
MTRTUP
METAR KTUP 181053Z AUTO 09005KT 10SM BKN075 OVC090 05/01 A3022 RMK
AO2 SLP234 T00500006





000
SAUS44 KMEG 180954
MTRTUP
METAR KTUP 180953Z AUTO 04006KT 10SM OVC080 05/01 A3025 RMK AO2
SLP244 T00500006





000
SAUS44 KMEG 180854
MTRTUP
METAR KTUP 180853Z AUTO 05007KT 10SM OVC085 05/01 A3025 RMK AO2
SLP245 T00500006 51004





000
SAUS44 KMEG 180854
MTRTUP
METAR KTUP 180853Z AUTO 05007KT 10SM OVC085 05/01 A3025 RMK AO2
SLP245 T00500006 51004





000
SAUS44 KMEG 180754
MTRTUP
METAR KTUP 180753Z AUTO 04006KT 10SM OVC080 05/01 A3025 RMK AO2
SLP244 T00500006





000
SAUS44 KMEG 180754
MTRTUP
METAR KTUP 180753Z AUTO 04006KT 10SM OVC080 05/01 A3025 RMK AO2
SLP244 T00500006





000
SAUS44 KMEG 180654
MTRTUP
METAR KTUP 180653Z AUTO 03007KT 10SM BKN080 BKN120 05/01 A3025 RMK
AO2 SLP243 T00500006





000
SAUS44 KMEG 180554
MTRTUP
METAR KTUP 180553Z AUTO 01003KT 10SM SCT085 SCT110 05/01 A3024 RMK
AO2 SLP241 T00500006 10067 20039 400940006 53005





000
SAUS44 KMEG 180454
MTRTUP
METAR KTUP 180453Z AUTO 06006KT 10SM OVC090 05/01 A3022 RMK AO2
SLP235 T00500006





000
SAUS44 KMEG 180354
MTRTUP
METAR KTUP 180353Z 04006KT 10SM FEW100 05/01 A3024 RMK AO2 SLP240
T00500006





000
SAUS44 KMEG 180354
MTRTUP
METAR KTUP 180353Z 04006KT 10SM FEW100 05/01 A3024 RMK AO2 SLP240
T00500006





000
SAUS44 KMEG 180254
MTRTUP
METAR KTUP 180253Z 06005KT 10SM CLR 05/01 A3023 RMK AO2 SLP236
T00500011 58008





000
SAUS44 KMEG 180154
MTRTUP
METAR KTUP 180153Z 06005KT 10SM CLR 05/01 A3024 RMK AO2 SLP242
T00500011





000
SAUS44 KMEG 180154
MTRTUP
METAR KTUP 180153Z 06005KT 10SM CLR 05/01 A3024 RMK AO2 SLP242
T00500011





000
SAUS44 KMEG 180054
MTRTUP
METAR KTUP 180053Z 05005KT 10SM CLR 06/02 A3025 RMK AO2 SLP244
T00560017





000
SAUS44 KMEG 172354
MTRTUP
METAR KTUP 172353Z 02007KT 10SM CLR 06/02 A3025 RMK AO2 SLP244
T00610017 10094 20061 53003





000
SAUS44 KMEG 172254
MTRTUP
METAR KTUP 172253Z 35003KT 10SM CLR 08/02 A3024 RMK AO2 SLP242
T00780017





000
SAUS44 KMEG 172154
MTRTUP
METAR KTUP 172153Z 04005KT 10SM CLR 08/02 A3024 RMK AO2 SLP241
T00830017





000
SAUS44 KMEG 172154
MTRTUP
METAR KTUP 172153Z 04005KT 10SM CLR 08/02 A3024 RMK AO2 SLP241
T00830017





000
SAUS44 KMEG 172054
MTRTUP
METAR KTUP 172053Z 04005KT 10SM CLR 09/02 A3024 RMK AO2 SLP240
T00890017 55011





000
SAUS44 KMEG 171954
MTRTUP
METAR KTUP 171953Z 04005KT 10SM CLR 09/02 A3023 RMK AO2 SLP238
T00940017





000
SAUS44 KMEG 171854
MTRTUP
METAR KTUP 171853Z 09003KT 10SM FEW024 08/01 A3025 RMK AO2 SLP244
T00830011





000
SAUS44 KMEG 171754
MTRTUP
METAR KTUP 171753Z 05004KT 10SM CLR 08/01 A3027 RMK AO2 SLP252
T00780011 10083 20006 58014





000
SAUS44 KMEG 171654
MTRTUP
METAR KTUP 171653Z 00000KT 10SM CLR 06/01 A3033 RMK AO2 SLP269
T00610011





000
SAUS44 KMEG 171554
MTRTUP
METAR KTUP 171553Z 05005KT 10SM CLR 05/01 A3032 RMK AO2 SLP269
T00500011





000
SAUS44 KMEG 171554
MTRTUP
METAR KTUP 171553Z 05005KT 10SM CLR 05/01 A3032 RMK AO2 SLP269
T00500011





000
SAUS44 KMEG 171454
MTRTUP
METAR KTUP 171453Z 03006KT 10SM CLR 03/01 A3032 RMK AO2 SLP267
T00330006 52014





000
SAUS44 KMEG 171354
MTRTUP
METAR KTUP 171353Z 02005KT 10SM CLR 02/M01 A3030 RMK AO2 SLP261
T00171006





000
SAUS44 KMEG 171254
MTRTUP
METAR KTUP 171253Z 01004KT 10SM CLR 01/M01 A3029 RMK AO2 SLP259
T00111011





000
SAUS44 KMEG 171154
MTRTUP
METAR KTUP 171153Z 35003KT 10SM CLR 01/M01 A3028 RMK AO2 SLP253
T00111006 10050 20011 53001





000
SAUS44 KMEG 171054
MTRTUP
METAR KTUP 171053Z AUTO 01003KT 10SM CLR 02/M01 A3027 RMK AO2 SLP250
T00171006





000
SAUS44 KMEG 170954
MTRTUP
METAR KTUP 170953Z AUTO 01004KT 10SM CLR 02/M01 A3026 RMK AO2 SLP247
T00171006





000
SAUS44 KMEG 170954
MTRTUP
METAR KTUP 170953Z AUTO 01004KT 10SM CLR 02/M01 A3026 RMK AO2 SLP247
T00171006





000
SAUS44 KMEG 170854
MTRTUP
METAR KTUP 170853Z AUTO 34004KT 10SM CLR 03/01 A3027 RMK AO2 SLP251
T00280006 50004





000
SAUS44 KMEG 170854
MTRTUP
METAR KTUP 170853Z AUTO 34004KT 10SM CLR 03/01 A3027 RMK AO2 SLP251
T00280006 50004





000
SAUS44 KMEG 170754
MTRTUP
METAR KTUP 170753Z AUTO 30004KT 10SM CLR 03/01 A3028 RMK AO2 SLP253
T00280006





000
SAUS44 KMEG 170754
MTRTUP
METAR KTUP 170753Z AUTO 30004KT 10SM CLR 03/01 A3028 RMK AO2 SLP253
T00280006





000
SAUS44 KMEG 170654
MTRTUP
METAR KTUP 170653Z AUTO 29005KT 10SM CLR 03/01 A3027 RMK AO2 SLP251
T00280011





000
SAUS44 KMEG 170554
MTRTUP
METAR KTUP 170553Z AUTO 01004KT 10SM CLR 04/01 A3026 RMK AO2 SLP247
T00440011 10089 20039 401220039 58001





000
SAUS44 KMEG 170539
MTRTUP
SPECI KTUP 170538Z AUTO 04005KT 10SM SCT023 04/01 A3026 RMK AO2
T00390011





000
SAUS44 KMEG 170454
MTRTUP
METAR KTUP 170453Z AUTO 01006KT 10SM OVC024 06/02 A3027 RMK AO2
SLP250 T00610022





000
SAUS44 KMEG 170454
MTRTUP
METAR KTUP 170453Z AUTO 01006KT 10SM OVC024 06/02 A3027 RMK AO2
SLP250 T00610022





000
SAUS44 KMEG 170354
MTRTUP
METAR KTUP 170353Z 02003KT 10SM OVC026 05/02 A3027 RMK AO2 SLP249
T00500022





000
SAUS44 KMEG 170319
MTRTUP
SPECI KTUP 170318Z 00000KT 10SM BKN027 04/02 A3027 RMK AO2 T00440017





000
SAUS44 KMEG 170254
MTRTUP
METAR KTUP 170253Z 01004KT 10SM CLR 05/02 A3026 RMK AO2 SLP248
T00500017 51017





000
SAUS44 KMEG 170154
MTRTUP
METAR KTUP 170153Z 35003KT 10SM CLR 07/02 A3025 RMK AO2 SLP244
T00670017





000
SAUS44 KMEG 170054
MTRTUP
METAR KTUP 170053Z 35006KT 10SM OVC037 08/02 A3024 RMK AO2 SLP239
T00780017





000
SAUS44 KMEG 162354
MTRTUP
METAR KTUP 162353Z 32003KT 10SM FEW039 09/02 A3021 RMK AO2 SLP231
T00890017 10122 20089 51021





000
SAUS44 KMEG 162254
MTRTUP
METAR KTUP 162253Z 31004KT 10SM CLR 10/02 A3019 RMK AO2 SLP224
T01000017





000
SAUS44 KMEG 162154
MTRTUP
METAR KTUP 162153Z 32005KT 10SM CLR 12/02 A3017 RMK AO2 SLP217
T01170017





000
SAUS44 KMEG 162054
MTRTUP
METAR KTUP 162053Z 28010KT 10SM FEW041 12/02 A3015 RMK AO2 SLP209
T01220017 53003





000
SAUS44 KMEG 161954
MTRTUP
METAR KTUP 161953Z 30007KT 10SM CLR 12/01 A3014 RMK AO2 SLP205
T01220011





000
SAUS44 KMEG 161854
MTRTUP
METAR KTUP 161853Z VRB05KT 10SM FEW039 12/01 A3014 RMK AO2 SLP204
T01170011





000
SAUS44 KMEG 161754
MTRTUP
METAR KTUP 161753Z 33007KT 290V350 10SM FEW037 11/01 A3014 RMK AO2
SLP206 T01060006 10111 20056 51012





000
SAUS44 KMEG 161654
MTRTUP
METAR KTUP 161653Z 32004KT 10SM CLR 09/01 A3014 RMK AO2 SLP207
T00940006





000
SAUS44 KMEG 161554
MTRTUP
METAR KTUP 161553Z 33008KT 10SM FEW035 09/02 A3014 RMK AO2 SLP204
T00940017





000
SAUS44 KMEG 161554
MTRTUP
METAR KTUP 161553Z 33008KT 10SM FEW035 09/02 A3014 RMK AO2 SLP204
T00940017





000
SAUS44 KMEG 161454
MTRTUP
METAR KTUP 161453Z 30006KT 10SM CLR 08/01 A3011 RMK AO2 SLP195
T00830011 53026





000
SAUS44 KMEG 161354
MTRTUP
METAR KTUP 161353Z 27005KT 10SM CLR 07/03 A3008 RMK AO2 SLP184
T00670028





000
SAUS44 KMEG 161254
MTRTUP
METAR KTUP 161253Z 00000KT 10SM CLR 06/03 A3006 RMK AO2 SLP178
T00610033





000
SAUS44 KMEG 161154
MTRTUP
METAR KTUP 161153Z 27004KT 10SM OVC042 08/04 A3003 RMK AO2 SLP168
70032 T00780039 10117 20056 53016





000
SAUS44 KMEG 161054
MTRTUP
METAR KTUP 161053Z AUTO 27005KT 10SM OVC040 08/04 A3001 RMK AO2
SLP161 T00780044





000
SAUS44 KMEG 160954
MTRTUP
METAR KTUP 160953Z AUTO 23003KT 10SM CLR 06/03 A2999 RMK AO2 SLP155
T00610033





000
SAUS44 KMEG 160954
MTRTUP
METAR KTUP 160953Z AUTO 23003KT 10SM CLR 06/03 A2999 RMK AO2 SLP155
T00610033





000
SAUS44 KMEG 160854
MTRTUP
METAR KTUP 160853Z AUTO 24003KT 10SM SCT025 BKN031 07/05 A2998 RMK
AO2 SLP152 T00720050 52016





000
SAUS44 KMEG 160833
MTRTUP
SPECI KTUP 160832Z AUTO 00000KT 10SM BKN024 BKN033 09/06 A2998 RMK
AO2 T00940061





000
SAUS44 KMEG 160754
MTRTUP
METAR KTUP 160753Z AUTO 31003KT 10SM OVC033 11/06 A2997 RMK AO2
SLP147 T01060061





000
SAUS44 KMEG 160654
MTRTUP
METAR KTUP 160653Z AUTO 33004KT 10SM CLR 11/06 A2995 RMK AO2 SLP139
T01060061





000
SAUS44 KMEG 160554
MTRTUP
METAR KTUP 160553Z AUTO 00000KT 10SM CLR 12/07 A2993 RMK AO2 SLP135
T01170072 10150 20117 401500044 53022





000
SAUS44 KMEG 160454
MTRTUP
METAR KTUP 160453Z AUTO 28008G16KT 10SM CLR 14/08 A2991 RMK AO2
SLP127 T01390083





    US Dept of Commerce
    National Oceanic and Atmospheric Administration
    National Weather Service
    1325 East West Highway
    Silver Spring, MD 20910
    Page Author: NWS Internet Services Team
Disclaimer
Information Quality
Credits
Glossary
Privacy Policy
Freedom of Information Act (FOIA)
About Us
Career Opportunities